x

South Brooks (46132) Wave Buoy

2:00 - Mon 31st Aug 2015 All times are PDT. -7 hours from GMT.

  • Sig Wave height 10.2ft
  • Peak Period 11s
  • Wind
    9mph, 11mph gusts
  • Sea Temp 61°f
  • Aire Temp 59°f
  • Sea Pressure 1007.6mb
  • South Brooks
  • South Brooks

More Historic Weather Station data

Upgrade to MSW Pro to gain access to the past 30 days of data for over 8000 Wavebouys and Weather Stations around the globe.

Join Pro

Comparision Forecast

View Surf forecast
   
lun 08/31 2:00 10ft 11s 9 11 mph 1007.6mb 61f 59f
1:00 10ft 9s 9 11 mph 1008mb 60f 59f
12:00 11.5ft 10s 11 16 mph 1008.1mb 60f 59f
11:00 12ft 10s 9 11 mph 1008.2mb 60f 59f
10:00 11.5ft 10s 11 13 mph 1008.5mb 60f 58f
9:00 11.5ft 10s 9 13 mph 1008.8mb 60f 58f
8:00 12ft 10s 4 9 mph 1008.8mb 60f 59f
7:00 11ft 9s 4 7 mph 1008.4mb 60f 58f
6:00 10.5ft 9s 4 7 mph 1008.1mb 60f 57f
5:00 11ft 9s 9
mph
1007.7mb 60f 60f
4:00 10ft 9s 4 7 mph 1007.6mb 59f 59f
3:00 9ft 10s 9 11 mph 1007.6mb 59f 59f
2:00 9.5ft 10s 7 9 mph 1007.4mb 59f 59f
1:00 9.5ft 9s 9 11 mph 1006.9mb 58f 59f
12:00 10ft 8s 9 11 mph 1006.7mb 58f 59f
dom 08/30 11:00 9.5ft 8s 9
mph
1006.5mb 57f 59f
10:00 10ft 8s 16 20 mph 1006.1mb 56f 59f
9:00 10ft 8s 13 16 mph 1005.6mb 56f 59f
8:00 10ft 8s 13 18 mph 1005.4mb 56f 58f
7:00 10.5ft 15s 13 18 mph 1005.2mb 56f 59f
6:00 9.5ft 15s 20 25 mph 1004.9mb 56f 59f
5:00 9ft 15s 22 25 mph 1005.2mb 56f 58f
4:00 9ft 11s 27 31 mph 1005.7mb 58f 58f
3:00 9ft 16s 20 25 mph 1006.4mb 57f 58f
2:00 9ft 15s 20 27 mph 1006.7mb 58f 59f
1:00 9ft 11s 16 20 mph 1006.9mb 57f 59f
12:00 8ft 11s 11 13 mph 1007.2mb 57f 58f
11:00 9ft 10s 9 11 mph 1007.1mb 57f 59f
10:00 9ft 13s 11 13 mph 1006.6mb 57f 58f
9:00 9.5ft 10s 9 11 mph 1006.4mb 57f 58f
8:00 9.5ft 12s 11 13 mph 1005.6mb 56f 58f
7:00 10ft 10s 9 11 mph 1005.4mb 56f 57f
6:00 10ft 12s 7 9 mph 1004.5mb 56f 57f
5:00 11ft 10s 7 9 mph 1004mb 57f 58f
4:00 11ft 10s 9 11 mph 1003.3mb 57f 58f
3:00 11ft 11s 9 11 mph 1002.7mb 57f 58f
2:00 11ft 10s 11 13 mph 1002.3mb 58f 58f
1:00 12ft 12s 11 13 mph 1001.8mb 58f 57f
12:00 11ft 10s 11 13 mph 1001.4mb 59f 59f
sáb 08/29 11:00 11ft 12s 9 13 mph 1001.1mb 59f 58f
10:00 11ft 12s 13 18 mph 1000.9mb 59f 58f
9:00 9.5ft 18s 16 20 mph 1000.4mb 58f 59f
8:00 8.5ft 18s 13 16 mph 1000.1mb 58f 59f
7:00 9ft 8s 13 16 mph 999.4mb 57f 58f
6:00 8ft 8s 7 9 mph 999.1mb 57f 57f
5:00 8ft 7s 16 20 mph 998.5mb 57f 57f
4:00 8ft 7s 11 13 mph 996.9mb 57f 58f
3:00 8ft 7s 16 18 mph 996.2mb 57f 58f
2:00 7ft 14s 13 18 mph 994.2mb 56f 57f
1:00 8ft 7s 11 13 mph 993mb 57f 56f
12:00 9ft 7s 9 11 mph 992mb 57f 56f
11:00 7.5ft 8s 9 13 mph 990.5mb 56f 57f
10:00 6ft 14s 13 18 mph 988.6mb 56f 56f
9:00 6ft 14s 16 20 mph 988.6mb 55f 55f
8:00 5.5ft 15s 13 16 mph 989.6mb 55f 55f
7:00 5.5ft 6s 9
mph
991mb 55f 55f
6:00 5.5ft 16s 2 4 mph 992.9mb 55f 55f
5:00 5.5ft 16s 4
mph
995.4mb 55f 55f
4:00 6ft 15s 13 18 mph 997mb 55f 57f
3:00 5.5ft 15s 13 22 mph 998.5mb 55f 58f
2:00 6ft 16s 11 13 mph 999.7mb 55f 59f
1:00 6ft 6s 13
mph
1001.2mb 55f 59f
12:00 6ft 6s 16 18 mph 1002.3mb 55f 59f
vie 08/28 11:00 6ft 6s 18 22 mph 1003.4mb 55f 59f
10:00 6ft 6s 18 22 mph 1004.7mb 55f 59f
9:00 6ft 6s 18 22 mph 1005.6mb 55f 59f
8:00 6ft 14s 20 25 mph 1006.3mb 55f 59f
7:00 6ft 6s 20 25 mph 1006.7mb 55f 59f
6:00 5ft 16s 18 20 mph 1007.6mb 56f 59f
5:00 5ft 15s 16 18 mph 1008.4mb 56f 60f
4:00 5ft 15s 16
mph
1009.2mb 56f 60f
3:00 4.5ft 15s 13 16 mph 1009.5mb 56f 60f
2:00 5ft 15s 13 16 mph 1010mb 56f 60f
1:00 5ft 14s 13 16 mph 1010.2mb 56f 60f
12:00 5ft 16s 11 13 mph 1010.5mb 56f 59f
11:00 5ft 16s 9 11 mph 1010.2mb 56f 59f
10:00 5ft 15s 7 9 mph 1010.3mb 56f 59f
9:00 5ft 15s 4 7 mph 1010.2mb 56f 58f
8:00 5ft 16s 4
mph
1009.5mb 56f 58f
7:00 6ft 15s 2 4 mph 1009.4mb 56f 58f
6:00 5ft 16s 9 11 mph 1009.7mb 56f 57f
5:00 5ft 15s 16 20 mph 1010mb 55f 57f
4:00 4.5ft 14s 16 20 mph 1010.5mb 55f 57f
3:00 4.5ft 14s 11 16 mph 1011.4mb 56f 58f
2:00 4.5ft 15s 13 16 mph 1011.2mb 56f 58f
1:00 4.5ft 15s 13 16 mph 1011.9mb 56f 58f
12:00 4.5ft 15s 13 16 mph 1012.3mb 56f 58f
jue 08/27 11:00 4.5ft 14s 11 13 mph 1012.8mb 56f 59f